createdAt,value
2018-02-24T00:00:59.776Z,-0.96
2018-02-24T00:01:59.796Z,-0.99
2018-02-24T00:02:59.809Z,-0.93
2018-02-24T00:03:59.820Z,-1.04
2018-02-24T00:04:59.839Z,-0.98
2018-02-24T00:05:59.848Z,-1.09
2018-02-24T00:06:59.869Z,-1.07
2018-02-24T00:07:59.879Z,-1.06
2018-02-24T00:08:59.899Z,-1.09
2018-02-24T00:09:59.907Z,-1.03
2018-02-24T00:10:59.929Z,-1.07
2018-02-24T00:11:59.974Z,-1.03
2018-02-24T00:12:59.957Z,-1.09
2018-02-24T00:13:59.967Z,-1.11
2018-02-24T00:14:59.987Z,-1.06
2018-02-24T00:15:59.998Z,-1.13
2018-02-24T00:17:00.019Z,-1.10
2018-02-24T00:18:00.027Z,-1.14
2018-02-24T00:19:00.054Z,-1.11
2018-02-24T00:20:00.057Z,-1.09
2018-02-24T00:21:00.071Z,-1.10
2018-02-24T00:22:00.092Z,-1.13
2018-02-24T00:23:00.106Z,-1.10
2018-02-24T00:24:00.116Z,-1.04
2018-02-24T00:25:00.130Z,-1.07
2018-02-24T00:26:00.149Z,-1.04
2018-02-24T00:27:00.166Z,-1.03
2018-02-24T00:28:00.174Z,-1.09
2018-02-24T00:29:00.189Z,-1.03
2018-02-24T00:30:00.210Z,-1.04
2018-02-24T00:31:00.226Z,-1.07
2018-02-24T00:32:00.234Z,-1.17
2018-02-24T00:33:00.250Z,-1.11
2018-02-24T00:34:00.268Z,-1.11
2018-02-24T00:35:00.279Z,-1.06
2018-02-24T00:36:00.299Z,-1.16
2018-02-24T00:37:00.313Z,-1.10
2018-02-24T00:38:00.321Z,-1.22
2018-02-24T00:39:00.338Z,-1.19
2018-02-24T00:40:00.359Z,-1.14
2018-02-24T00:41:00.374Z,-1.17
2018-02-24T00:42:00.381Z,-1.19
2018-02-24T00:43:00.396Z,-1.14
2018-02-24T00:44:00.417Z,-1.14
2018-02-24T00:45:00.432Z,-1.16
2018-02-24T00:46:00.441Z,-1.14
2018-02-24T00:47:00.455Z,-1.19
2018-02-24T00:48:00.477Z,-1.17
2018-02-24T00:49:00.490Z,-1.27
2018-02-24T00:50:00.504Z,-1.16
2018-02-24T00:51:00.521Z,-1.24
2018-02-24T00:52:00.535Z,-1.21
2018-02-24T00:53:00.566Z,-1.19
2018-02-24T00:54:00.565Z,-1.11
2018-02-24T00:55:00.578Z,-1.28
2018-02-24T00:56:00.589Z,-1.21
2018-02-24T00:57:00.603Z,-1.22
2018-02-24T00:58:00.617Z,-1.22
2018-02-24T00:59:00.632Z,-1.22
2018-02-24T01:00:00.654Z,-1.21
2018-02-24T01:01:00.669Z,-1.17
2018-02-24T01:02:00.680Z,-1.19
2018-02-24T01:03:00.692Z,-1.19
2018-02-24T01:04:00.713Z,-1.21
2018-02-24T01:05:00.726Z,-1.28
2018-02-24T01:06:00.738Z,-1.24
2018-02-24T01:07:00.751Z,-1.25
2018-02-24T01:08:00.766Z,-1.24
2018-02-24T01:09:00.787Z,-1.24
2018-02-24T01:10:00.794Z,-1.25
2018-02-24T01:11:00.812Z,-1.32
2018-02-24T01:12:00.830Z,-1.27
2018-02-24T01:13:00.847Z,-1.31
2018-02-24T01:14:00.859Z,-1.32
2018-02-24T01:15:00.873Z,-1.21
2018-02-24T01:16:00.883Z,-1.24
2018-02-24T01:17:00.896Z,-1.25
2018-02-24T01:18:00.919Z,-1.32
2018-02-24T01:19:00.936Z,-1.30
2018-02-24T01:20:00.941Z,-1.35
2018-02-24T01:21:00.956Z,-1.37
2018-02-24T01:22:00.975Z,-1.35
2018-02-24T01:23:00.986Z,-1.37
2018-02-24T01:24:01.007Z,-1.40
2018-02-24T01:25:01.022Z,-1.31
2018-02-24T01:26:01.029Z,-1.35
2018-02-24T01:27:01.053Z,-1.37
2018-02-24T01:28:01.064Z,-1.30
2018-02-24T01:29:01.080Z,-1.31
2018-02-24T01:30:01.088Z,-1.38
2018-02-24T01:31:01.102Z,-1.31
2018-02-24T01:32:01.123Z,-1.35
2018-02-24T01:33:01.137Z,-1.37
2018-02-24T01:34:01.147Z,-1.43
2018-02-24T01:35:01.162Z,-1.35
2018-02-24T01:36:01.181Z,-1.35
2018-02-24T01:37:01.195Z,-1.37
2018-02-24T01:38:01.205Z,-1.32
2018-02-24T01:39:01.220Z,-1.40
2018-02-24T01:40:01.240Z,-1.38
2018-02-24T01:41:01.248Z,-1.42
2018-02-24T01:42:01.268Z,-1.45
2018-02-24T01:43:01.281Z,-1.38
2018-02-24T01:44:01.300Z,-1.43
2018-02-24T01:45:01.307Z,-1.34
2018-02-24T01:46:01.327Z,-1.40
2018-02-24T01:47:01.337Z,-1.38
2018-02-24T01:48:01.360Z,-1.35
2018-02-24T01:49:01.364Z,-1.43
2018-02-24T01:50:01.385Z,-1.42
2018-02-24T01:51:01.398Z,-1.38
2018-02-24T01:52:01.416Z,-1.46
2018-02-24T01:53:01.423Z,-1.43
2018-02-24T01:54:01.445Z,-1.40
2018-02-24T01:55:01.456Z,-1.46
2018-02-24T01:56:01.465Z,-1.35
2018-02-24T01:57:01.485Z,-1.43
2018-02-24T01:58:01.493Z,-1.42
2018-02-24T01:59:01.515Z,-1.45
2018-02-24T02:00:01.523Z,-1.50
2018-02-24T02:01:01.543Z,-1.46
2018-02-24T02:02:01.553Z,-1.48
2018-02-24T02:03:01.567Z,-1.48
2018-02-24T02:04:01.587Z,-1.46
2018-02-24T02:05:01.602Z,-1.48
2018-02-24T02:06:01.610Z,-1.53
2018-02-24T02:07:01.625Z,-1.45
2018-02-24T02:08:01.649Z,-1.43
2018-02-24T02:09:01.659Z,-1.45
2018-02-24T02:10:01.670Z,-1.49
2018-02-24T02:11:01.683Z,-1.49
2018-02-24T02:12:01.704Z,-1.56
2018-02-24T02:13:01.717Z,-1.49
2018-02-24T02:14:01.728Z,-1.49
2018-02-24T02:15:01.742Z,-1.45
2018-02-24T02:16:01.763Z,-1.46
2018-02-24T02:17:01.774Z,-1.48
2018-02-24T02:18:01.784Z,-1.46
2018-02-24T02:19:01.805Z,-1.49
2018-02-24T02:20:01.813Z,-1.53
2018-02-24T02:21:01.829Z,-1.53
2018-02-24T02:22:01.848Z,-1.45
2018-02-24T02:23:01.862Z,-1.46
2018-02-24T02:24:01.872Z,-1.46
2018-02-24T02:25:01.886Z,-1.48
2018-02-24T02:26:01.905Z,-1.48
2018-02-24T02:27:01.915Z,-1.45
2018-02-24T02:28:01.936Z,-1.49
2018-02-24T02:29:01.948Z,-1.48
2018-02-24T02:30:01.959Z,-1.46
2018-02-24T02:31:01.973Z,-1.45
2018-02-24T02:32:01.994Z,-1.46
2018-02-24T02:33:02.008Z,-1.53
2018-02-24T02:34:02.078Z,-1.52
2018-02-24T02:35:02.031Z,-1.55
2018-02-24T02:36:02.049Z,-1.50
2018-02-24T02:37:02.061Z,-1.48
2018-02-24T02:38:02.079Z,-1.53
2018-02-24T02:39:02.090Z,-1.46
2018-02-24T02:40:02.110Z,-1.55
2018-02-24T02:41:02.118Z,-1.58
2018-02-24T02:42:02.146Z,-1.53
2018-02-24T02:43:02.146Z,-1.53
2018-02-24T02:44:02.168Z,-1.52
2018-02-24T02:45:02.174Z,-1.53
2018-02-24T02:46:02.195Z,-1.52
2018-02-24T02:47:02.208Z,-1.56
2018-02-24T02:48:02.227Z,-1.48
2018-02-24T02:49:02.233Z,-1.45
2018-02-24T02:50:02.253Z,-1.61
2018-02-24T02:51:02.268Z,-1.45
2018-02-24T02:52:02.282Z,-1.48
2018-02-24T02:53:02.296Z,-1.50
2018-02-24T02:54:02.306Z,-1.63
2018-02-24T02:55:02.326Z,-1.56
2018-02-24T02:56:02.335Z,-1.56
2018-02-24T02:57:02.354Z,-1.61
2018-02-24T02:58:02.365Z,-1.63
2018-02-24T02:59:02.385Z,-1.64
2018-02-24T03:00:02.392Z,-1.61
2018-02-24T03:01:02.411Z,-1.58
2018-02-24T03:02:02.420Z,-1.64
2018-02-24T03:03:02.441Z,-1.63
2018-02-24T03:04:02.449Z,-1.60
2018-02-24T03:05:02.470Z,-1.70
2018-02-24T03:06:02.479Z,-1.63
2018-02-24T03:07:02.494Z,-1.56
2018-02-24T03:08:02.508Z,-1.60
2018-02-24T03:09:02.522Z,-1.67
2018-02-24T03:10:02.544Z,-1.71
2018-02-24T03:11:02.550Z,-1.63
2018-02-24T03:12:02.572Z,-1.60
2018-02-24T03:13:02.578Z,-1.60
2018-02-24T03:14:02.593Z,-1.70
2018-02-24T03:15:02.614Z,-1.71
2018-02-24T03:16:02.623Z,-1.68
2018-02-24T03:17:02.636Z,-1.71
2018-02-24T03:18:02.657Z,-1.67
2018-02-24T03:19:02.672Z,-1.67
2018-02-24T03:20:02.684Z,-1.71
2018-02-24T03:21:02.695Z,-1.68
2018-02-24T03:22:02.714Z,-1.66
2018-02-24T03:23:02.723Z,-1.64
2018-02-24T03:24:02.739Z,-1.71
2018-02-24T03:25:02.758Z,-1.68
2018-02-24T03:26:02.772Z,-1.64
2018-02-24T03:27:02.782Z,-1.73
2018-02-24T03:28:02.801Z,-1.61
2018-02-24T03:29:02.810Z,-1.68
2018-02-24T03:30:02.838Z,-1.68
2018-02-24T03:31:02.846Z,-1.66
2018-02-24T03:32:02.853Z,-1.63
2018-02-24T03:33:02.867Z,-1.67
2018-02-24T03:34:02.888Z,-1.70
2018-02-24T03:35:02.902Z,-1.66
2018-02-24T03:36:02.913Z,-1.66
2018-02-24T03:37:02.925Z,-1.64
2018-02-24T03:38:02.948Z,-1.76
2018-02-24T03:39:02.960Z,-1.76
2018-02-24T03:40:02.969Z,-1.73
2018-02-24T03:41:02.992Z,-1.71
2018-02-24T03:42:03.003Z,-1.86
2018-02-24T03:43:03.012Z,-1.79
2018-02-24T03:44:03.028Z,-1.82
2018-02-24T03:45:03.045Z,-1.76
2018-02-24T03:46:03.062Z,-1.76
2018-02-24T03:47:03.070Z,-1.81
2018-02-24T03:48:03.090Z,-1.82
2018-02-24T03:49:03.098Z,-1.76
2018-02-24T03:50:03.119Z,-1.79
2018-02-24T03:51:03.131Z,-1.81
2018-02-24T03:52:03.147Z,-1.81
2018-02-24T03:53:03.155Z,-1.74
2018-02-24T03:54:03.176Z,-1.82
2018-02-24T03:55:03.185Z,-1.84
2018-02-24T03:56:03.209Z,-1.86
2018-02-24T03:57:03.220Z,-1.85
2018-02-24T03:58:03.233Z,-1.81
2018-02-24T03:59:03.247Z,-1.81
2018-02-24T04:00:03.261Z,-1.82
2018-02-24T04:01:03.269Z,-1.85
2018-02-24T04:02:03.293Z,-1.82
2018-02-24T04:03:03.308Z,-1.86
2018-02-24T04:04:03.314Z,-1.85
2018-02-24T04:05:03.333Z,-1.81
2018-02-24T04:06:03.342Z,-1.89
2018-02-24T04:07:03.362Z,-1.85
2018-02-24T04:08:03.375Z,-1.81
2018-02-24T04:09:03.393Z,-1.86
2018-02-24T04:10:03.399Z,-1.97
2018-02-24T04:11:03.415Z,-1.89
2018-02-24T04:12:03.429Z,-1.89
2018-02-24T04:13:03.450Z,-1.89
2018-02-24T04:14:03.463Z,-1.97
2018-02-24T04:15:03.471Z,-1.91
2018-02-24T04:16:03.491Z,-1.91
2018-02-24T04:17:03.500Z,-1.86
2018-02-24T04:18:03.521Z,-1.89
2018-02-24T04:19:03.534Z,-1.94
2018-02-24T04:20:03.543Z,-1.89
2018-02-24T04:21:03.555Z,-1.89
2018-02-24T04:22:03.577Z,-1.96
2018-02-24T04:23:03.591Z,-1.96
2018-02-24T04:24:03.600Z,-1.97
2018-02-24T04:25:03.615Z,-1.97
2018-02-24T04:26:03.641Z,-1.91
2018-02-24T04:27:03.642Z,-1.91
2018-02-24T04:28:03.663Z,-1.89
2018-02-24T04:29:03.671Z,-1.89
2018-02-24T04:30:03.685Z,-1.89
2018-02-24T04:31:03.705Z,-1.82
2018-02-24T04:32:03.720Z,-1.89
2018-02-24T04:33:03.732Z,-1.82
2018-02-24T04:34:03.743Z,-1.91
2018-02-24T04:35:03.762Z,-1.91
2018-02-24T04:36:03.772Z,-1.85
2018-02-24T04:37:03.784Z,-1.96
2018-02-24T04:38:03.807Z,-1.96
2018-02-24T04:39:03.820Z,-1.92
2018-02-24T04:40:03.829Z,-2.02
2018-02-24T04:41:03.841Z,-1.97
2018-02-24T04:42:03.862Z,-1.97
2018-02-24T04:43:03.871Z,-1.97
2018-02-24T04:44:03.891Z,-1.91
2018-02-24T04:45:03.904Z,-1.97
2018-02-24T04:46:03.923Z,-1.91
2018-02-24T04:47:03.934Z,-1.91
2018-02-24T04:48:03.949Z,-1.92
2018-02-24T04:49:03.962Z,-1.96
2018-02-24T04:50:03.976Z,-2.03
2018-02-24T04:51:03.985Z,-1.99
2018-02-24T04:52:04.005Z,-1.99
2018-02-24T04:53:04.013Z,-1.94
2018-02-24T04:54:04.034Z,-1.97
2018-02-24T04:55:04.042Z,-1.97
2018-02-24T04:56:04.065Z,-2.03
2018-02-24T04:57:04.070Z,-1.91
2018-02-24T04:58:04.090Z,-1.96
2018-02-24T04:59:04.104Z,-2.05
2018-02-24T05:00:04.114Z,-2.02
2018-02-24T05:01:04.126Z,-2.05
2018-02-24T05:02:04.141Z,-2.02
2018-02-24T05:03:04.156Z,-2.00
2018-02-24T05:04:04.170Z,-1.99
2018-02-24T05:05:04.190Z,-1.97
2018-02-24T05:06:04.198Z,-2.00
2018-02-24T05:07:04.213Z,-2.02
2018-02-24T05:08:04.233Z,-2.06
2018-02-24T05:09:04.247Z,-2.00
2018-02-24T05:10:04.256Z,-2.06
2018-02-24T05:11:04.269Z,-2.05
2018-02-24T05:12:04.291Z,-1.97
2018-02-24T05:13:04.304Z,-2.00
2018-02-24T05:14:04.312Z,-2.02
2018-02-24T05:15:04.329Z,-2.00
2018-02-24T05:16:04.346Z,-1.94
2018-02-24T05:17:04.354Z,-2.03
2018-02-24T05:18:04.378Z,-2.03
2018-02-24T05:19:04.384Z,-2.03
2018-02-24T05:20:04.404Z,-2.00
2018-02-24T05:21:04.412Z,-1.96
2018-02-24T05:22:04.431Z,-2.03
2018-02-24T05:23:04.440Z,-2.10
2018-02-24T05:24:04.459Z,-2.17
2018-02-24T05:25:04.467Z,-2.15
2018-02-24T05:26:04.489Z,-2.15
2018-02-24T05:27:04.498Z,-2.15
2018-02-24T05:28:04.517Z,-2.20
2018-02-24T05:29:04.527Z,-2.17
2018-02-24T05:30:04.545Z,-2.05
2018-02-24T05:31:04.562Z,-2.07
2018-02-24T05:32:04.568Z,-2.05
2018-02-24T05:33:04.588Z,-2.07
2018-02-24T05:34:04.597Z,-2.12
2018-02-24T05:35:04.617Z,-2.18
2018-02-24T05:36:04.625Z,-2.17
2018-02-24T05:37:04.644Z,-2.18
2018-02-24T05:38:04.653Z,-2.12
2018-02-24T05:39:04.673Z,-2.12
2018-02-24T05:40:04.682Z,-2.18
2018-02-24T05:41:04.701Z,-2.14
2018-02-24T05:42:04.710Z,-2.14
2018-02-24T05:43:04.728Z,-2.17
2018-02-24T05:44:04.739Z,-2.18
2018-02-24T05:45:04.759Z,-2.14
2018-02-24T05:46:04.768Z,-2.12
2018-02-24T05:47:04.781Z,-2.18
2018-02-24T05:48:04.801Z,-2.23
2018-02-24T05:49:04.814Z,-2.23
2018-02-24T05:50:04.824Z,-2.27
2018-02-24T05:51:04.837Z,-2.12
2018-02-24T05:52:04.858Z,-2.18
2018-02-24T05:53:04.870Z,-2.14
2018-02-24T05:54:04.880Z,-2.17
2018-02-24T05:55:04.896Z,-2.09
2018-02-24T05:56:04.914Z,-2.15
2018-02-24T05:57:04.928Z,-2.27
2018-02-24T05:58:04.937Z,-2.12
2018-02-24T05:59:04.951Z,-2.15
2018-02-24T06:00:04.971Z,-2.12
2018-02-24T06:01:04.985Z,-2.15
2018-02-24T06:02:04.993Z,-2.09
2018-02-24T06:03:05.015Z,-2.14
2018-02-24T06:04:05.022Z,-2.12
2018-02-24T06:05:05.036Z,-2.24
2018-02-24T06:06:05.056Z,-2.15
2018-02-24T06:07:05.070Z,-2.18
2018-02-24T06:08:05.078Z,-2.17
2018-02-24T06:09:05.091Z,-2.24
2018-02-24T06:10:05.112Z,-2.15
2018-02-24T06:11:05.129Z,-2.14
2018-02-24T06:12:05.141Z,-2.12
2018-02-24T06:13:05.156Z,-2.09
2018-02-24T06:14:05.163Z,-2.28
2018-02-24T06:15:05.177Z,-2.25
2018-02-24T06:16:05.197Z,-2.12
2018-02-24T06:17:05.210Z,-2.27
2018-02-24T06:18:05.220Z,-2.25
2018-02-24T06:19:05.233Z,-2.23
2018-02-24T06:20:05.255Z,-2.28
2018-02-24T06:21:05.267Z,-2.30
2018-02-24T06:22:05.281Z,-2.34
2018-02-24T06:23:05.291Z,-2.28
2018-02-24T06:24:05.310Z,-2.36
2018-02-24T06:25:05.325Z,-2.27
2018-02-24T06:26:05.335Z,-2.36
2018-02-24T06:27:05.348Z,-2.23
2018-02-24T06:28:05.368Z,-2.32
2018-02-24T06:29:05.378Z,-2.30
2018-02-24T06:30:05.395Z,-2.30
2018-02-24T06:31:05.403Z,-2.24
2018-02-24T06:32:05.423Z,-2.28
2018-02-24T06:33:05.432Z,-2.27
2018-02-24T06:34:05.451Z,-2.28
2018-02-24T06:35:05.459Z,-2.34
2018-02-24T06:36:05.480Z,-2.23
2018-02-24T06:37:05.487Z,-2.25
2018-02-24T06:38:05.507Z,-2.30
2018-02-24T06:39:05.517Z,-2.34
2018-02-24T06:40:05.536Z,-2.25
2018-02-24T06:41:05.544Z,-2.17
2018-02-24T06:42:05.564Z,-2.34
2018-02-24T06:43:05.577Z,-2.21
2018-02-24T06:44:05.587Z,-2.12
2018-02-24T06:45:05.605Z,-2.17
2018-02-24T06:46:05.616Z,-2.20
2018-02-24T06:47:05.634Z,-2.14
2018-02-24T06:48:05.643Z,-2.17
2018-02-24T06:49:05.663Z,-2.20
2018-02-24T06:50:05.672Z,-2.20
2018-02-24T06:51:05.693Z,-2.17
2018-02-24T06:52:05.701Z,-2.10
2018-02-24T06:53:05.718Z,-2.14
2018-02-24T06:54:05.728Z,-2.17
2018-02-24T06:55:05.748Z,-2.17
2018-02-24T06:56:05.756Z,-2.03
2018-02-24T06:57:05.815Z,-2.09
2018-02-24T06:58:05.785Z,-2.10
2018-02-24T06:59:05.798Z,-2.20
2018-02-24T07:00:05.818Z,-2.12
2018-02-24T07:01:05.831Z,-2.14
2018-02-24T07:02:05.841Z,-2.17
2018-02-24T07:03:05.854Z,-2.15
2018-02-24T07:04:05.875Z,-2.06
2018-02-24T07:05:05.889Z,-2.09
2018-02-24T07:06:05.898Z,-2.06
2018-02-24T07:07:05.921Z,-2.03
2018-02-24T07:08:05.932Z,-2.02
2018-02-24T07:09:05.945Z,-1.94
2018-02-24T07:10:05.954Z,-1.94
2018-02-24T07:11:05.968Z,-2.03
2018-02-24T07:12:05.989Z,-1.94
2018-02-24T07:13:06.002Z,-1.97
2018-02-24T07:14:06.011Z,-1.97
2018-02-24T07:15:06.032Z,-1.97
2018-02-24T07:16:06.039Z,-1.92
2018-02-24T07:17:06.053Z,-1.99
2018-02-24T07:18:06.073Z,-1.92
2018-02-24T07:19:06.087Z,-1.88
2018-02-24T07:20:06.098Z,-1.89
2018-02-24T07:21:06.109Z,-1.88
2018-02-24T07:22:06.129Z,-1.96
2018-02-24T07:23:06.149Z,-1.97
2018-02-24T07:24:06.159Z,-1.88
2018-02-24T07:25:06.175Z,-1.99
2018-02-24T07:26:06.232Z,-1.94
2018-02-24T07:27:06.203Z,-1.88
2018-02-24T07:28:06.210Z,-1.81
2018-02-24T07:29:06.224Z,-1.71
2018-02-24T07:30:06.244Z,-1.86
2018-02-24T07:31:06.255Z,-1.76
2018-02-24T07:32:06.273Z,-1.68
2018-02-24T07:33:06.282Z,-1.61
2018-02-24T07:34:06.301Z,-1.64
2018-02-24T07:35:06.310Z,-1.67
2018-02-24T07:36:06.330Z,-1.63
2018-02-24T07:37:06.338Z,-1.56
2018-02-24T07:38:06.359Z,-1.60
2018-02-24T07:39:06.374Z,-1.66
2018-02-24T07:40:06.439Z,-1.56
2018-02-24T07:41:06.397Z,-1.63
2018-02-24T07:42:06.411Z,-1.58
2018-02-24T07:43:06.472Z,-1.60
2018-02-24T07:44:06.441Z,-1.49
2018-02-24T07:45:06.460Z,-1.46
2018-02-24T07:46:06.472Z,-1.48
2018-02-24T07:47:06.492Z,-1.48
2018-02-24T07:48:06.499Z,-1.37
2018-02-24T07:49:06.517Z,-1.43
2018-02-24T07:50:06.527Z,-1.34
2018-02-24T07:51:06.548Z,-1.32
2018-02-24T07:52:06.558Z,-1.27
2018-02-24T07:53:06.577Z,-1.25
2018-02-24T07:54:06.585Z,-1.21
2018-02-24T07:55:06.605Z,-1.16
2018-02-24T07:56:06.615Z,-1.16
2018-02-24T07:57:06.636Z,-1.21
2018-02-24T07:58:06.649Z,-1.17
2018-02-24T07:59:06.658Z,-1.14
2018-02-24T08:00:06.674Z,-1.17
2018-02-24T08:01:06.688Z,-1.19
2018-02-24T08:02:06.708Z,-1.09
2018-02-24T08:03:06.723Z,-1.07
2018-02-24T08:04:06.732Z,-1.03
2018-02-24T08:05:06.747Z,-0.92
2018-02-24T08:06:06.768Z,-0.84
2018-02-24T08:07:06.782Z,-0.82
2018-02-24T08:08:06.791Z,-0.73
2018-02-24T08:09:06.805Z,-0.84
2018-02-24T08:10:06.826Z,-0.77
2018-02-24T08:11:06.835Z,-0.82
2018-02-24T08:12:06.856Z,-0.77
2018-02-24T08:13:06.864Z,-0.80
2018-02-24T08:14:06.879Z,-0.89
2018-02-24T08:15:06.900Z,-0.80
2018-02-24T08:16:06.916Z,-0.84
2018-02-24T08:17:06.929Z,-0.84
2018-02-24T08:18:06.939Z,-0.77
2018-02-24T08:19:06.960Z,-0.87
2018-02-24T08:20:06.968Z,-0.76
2018-02-24T08:21:06.982Z,-0.79
2018-02-24T08:22:07.004Z,-0.66
2018-02-24T08:23:07.018Z,-0.64
2018-02-24T08:24:07.029Z,-0.80
2018-02-24T08:25:07.042Z,-0.67
2018-02-24T08:26:07.064Z,-0.58
2018-02-24T08:27:07.072Z,-0.58
2018-02-24T08:28:07.093Z,-0.49
2018-02-24T08:29:07.109Z,-0.51
2018-02-24T08:30:07.118Z,-0.41
2018-02-24T08:31:07.136Z,-0.45
2018-02-24T08:32:07.154Z,-0.43
2018-02-24T08:33:07.166Z,-0.30
2018-02-24T08:34:07.183Z,-0.33
2018-02-24T08:35:07.192Z,-0.30
2018-02-24T08:36:07.215Z,-0.41
2018-02-24T08:37:07.221Z,-0.43
2018-02-24T08:38:07.243Z,-0.40
2018-02-24T08:39:07.253Z,-0.38
2018-02-24T08:40:07.272Z,-0.25
2018-02-24T08:41:07.288Z,-0.25
2018-02-24T08:42:07.303Z,-0.22
2018-02-24T08:43:07.319Z,-0.15
2018-02-24T08:44:07.333Z,-0.22
2018-02-24T08:45:07.348Z,-0.23
2018-02-24T08:46:07.362Z,-0.12
2018-02-24T08:47:07.377Z,-0.09
2018-02-24T08:48:07.390Z,0.03
2018-02-24T08:49:07.403Z,-0.01
2018-02-24T08:50:07.422Z,0.01
2018-02-24T08:51:07.440Z,0.10
2018-02-24T08:52:07.449Z,0.13
2018-02-24T08:53:07.468Z,0.14
2018-02-24T08:54:07.478Z,0.38
2018-02-24T08:55:07.501Z,0.50
2018-02-24T08:56:07.510Z,0.66
2018-02-24T08:57:07.529Z,0.58
2018-02-24T08:58:07.541Z,0.81
2018-02-24T08:59:07.563Z,1.75
2018-02-24T09:00:07.571Z,3.06
2018-02-24T09:01:07.586Z,4.02
2018-02-24T09:02:07.601Z,4.46
2018-02-24T09:03:07.617Z,5.45
2018-02-24T09:04:07.633Z,5.31
2018-02-24T09:05:07.655Z,5.64
2018-02-24T09:06:07.668Z,5.82
2018-02-24T09:07:07.689Z,5.99
2018-02-24T09:08:07.701Z,6.33
2018-02-24T09:09:07.718Z,6.80
2018-02-24T09:10:07.742Z,7.05
2018-02-24T09:11:07.761Z,7.48
2018-02-24T09:12:07.778Z,7.29
2018-02-24T09:13:07.799Z,6.98
2018-02-24T09:14:07.818Z,6.85
2018-02-24T09:15:07.839Z,6.95
2018-02-24T09:16:07.854Z,6.73
2018-02-24T09:17:07.880Z,6.80
2018-02-24T09:18:07.902Z,6.40
2018-02-24T09:19:07.946Z,6.76
2018-02-24T09:20:07.940Z,7.00
2018-02-24T09:21:07.966Z,6.86
2018-02-24T09:22:07.987Z,6.65
2018-02-24T09:23:08.006Z,7.04
2018-02-24T09:24:08.034Z,7.27
2018-02-24T09:25:08.057Z,7.31
2018-02-24T09:26:08.073Z,7.18
2018-02-24T09:27:08.096Z,7.68
2018-02-24T09:28:08.125Z,7.75
2018-02-24T09:29:08.148Z,7.55
2018-02-24T09:30:08.166Z,7.99
2018-02-24T09:31:08.196Z,8.53
2018-02-24T09:32:08.214Z,7.64
2018-02-24T09:33:08.248Z,8.22
2018-02-24T09:34:08.268Z,7.26
2018-02-24T09:35:08.291Z,7.52
2018-02-24T09:36:08.315Z,7.09
2018-02-24T09:37:08.345Z,6.94
2018-02-24T09:38:08.359Z,6.98
2018-02-24T09:39:08.390Z,7.34
2018-02-24T09:40:08.408Z,7.75
2018-02-24T09:41:08.437Z,8.24
2018-02-24T09:42:08.457Z,8.82
2018-02-24T09:43:08.489Z,9.11
2018-02-24T09:44:08.508Z,8.72
2018-02-24T09:45:08.537Z,8.28
2018-02-24T09:46:08.558Z,8.32
2018-02-24T09:47:08.582Z,8.57
2018-02-24T09:48:08.607Z,9.09
2018-02-24T09:49:08.631Z,8.34
2018-02-24T09:50:08.656Z,8.54
2018-02-24T09:51:08.689Z,8.53
2018-02-24T09:52:08.708Z,8.65
2018-02-24T09:53:08.732Z,8.50
2018-02-24T09:54:08.764Z,7.83
2018-02-24T09:55:08.783Z,7.95
2018-02-24T09:56:08.816Z,7.61
2018-02-24T09:57:08.834Z,7.93
2018-02-24T09:58:08.870Z,7.99
2018-02-24T09:59:08.886Z,7.74
2018-02-24T10:00:08.919Z,8.09
2018-02-24T10:01:08.941Z,8.47
2018-02-24T10:02:08.968Z,8.67
2018-02-24T10:03:08.990Z,8.34
2018-02-24T10:04:09.033Z,8.31
2018-02-24T10:05:09.041Z,8.26
2018-02-24T10:06:09.073Z,8.46
2018-02-24T10:07:09.101Z,8.35
2018-02-24T10:08:09.120Z,8.28
2018-02-24T10:09:09.150Z,8.29
2018-02-24T10:10:09.175Z,8.31
2018-02-24T10:11:09.197Z,8.58
2018-02-24T10:12:09.230Z,8.72
2018-02-24T10:13:09.254Z,9.09
2018-02-24T10:14:09.274Z,8.98
2018-02-24T10:15:09.301Z,8.85
2018-02-24T10:16:09.332Z,8.47
2018-02-24T10:17:09.360Z,8.60
2018-02-24T10:18:09.380Z,9.11
2018-02-24T10:19:09.411Z,8.95
2018-02-24T10:20:09.440Z,9.63
2018-02-24T10:21:09.466Z,9.34
2018-02-24T10:22:09.485Z,9.04
2018-02-24T10:23:09.562Z,8.26
2018-02-24T10:24:09.544Z,8.62
2018-02-24T10:25:09.563Z,9.04
2018-02-24T10:26:09.589Z,8.62
2018-02-24T10:27:09.621Z,8.49
2018-02-24T10:28:09.642Z,8.69
2018-02-24T10:29:09.674Z,9.24
2018-02-24T10:30:09.694Z,9.57
2018-02-24T10:31:09.726Z,9.80
2018-02-24T10:32:09.749Z,9.74
2018-02-24T10:33:09.779Z,9.26
2018-02-24T10:34:09.801Z,9.47
2018-02-24T10:35:09.831Z,9.34
2018-02-24T10:36:09.858Z,9.81
2018-02-24T10:37:09.879Z,10.49
2018-02-24T10:38:09.910Z,10.26
2018-02-24T10:39:09.932Z,10.21
2018-02-24T10:40:09.964Z,10.21
2018-02-24T10:41:09.990Z,9.98
2018-02-24T10:42:10.018Z,10.46
2018-02-24T10:43:10.039Z,10.47
2018-02-24T10:44:10.072Z,10.47
2018-02-24T10:45:10.091Z,10.35
2018-02-24T10:46:10.124Z,10.32
2018-02-24T10:47:10.146Z,10.42
2018-02-24T10:48:10.179Z,10.15
2018-02-24T10:49:10.201Z,9.16
2018-02-24T10:50:10.232Z,9.32
2018-02-24T10:51:10.254Z,10.42
2018-02-24T10:52:10.280Z,10.77
2018-02-24T10:53:10.313Z,10.33
2018-02-24T10:54:10.333Z,9.45
2018-02-24T10:55:10.370Z,8.62
2018-02-24T10:56:10.389Z,8.35
2018-02-24T10:57:10.414Z,8.71
2018-02-24T10:58:10.440Z,9.57
2018-02-24T10:59:10.469Z,9.80
2018-02-24T11:00:10.500Z,10.36
2018-02-24T11:01:10.524Z,9.99
2018-02-24T11:02:10.549Z,10.25
2018-02-24T11:03:10.573Z,10.36
2018-02-24T11:04:10.605Z,9.78
2018-02-24T11:05:10.630Z,9.32
2018-02-24T11:06:10.652Z,7.80
2018-02-24T11:07:10.678Z,8.16
2018-02-24T11:08:10.706Z,7.86
2018-02-24T11:09:10.733Z,7.68
2018-02-24T11:10:10.762Z,7.05
2018-02-24T11:11:10.787Z,7.99
2018-02-24T11:12:10.807Z,7.91
2018-02-24T11:13:10.838Z,7.45
2018-02-24T11:14:10.863Z,6.95
2018-02-24T11:15:10.888Z,7.39
2018-02-24T11:16:10.908Z,6.90
2018-02-24T11:17:10.932Z,7.03
2018-02-24T11:18:10.963Z,6.43
2018-02-24T11:19:10.990Z,5.96
2018-02-24T11:20:11.006Z,5.96
2018-02-24T11:21:11.028Z,5.62
2018-02-24T11:22:11.059Z,5.63
2018-02-24T11:23:11.083Z,5.55
2018-02-24T11:24:11.106Z,5.41
2018-02-24T11:25:11.129Z,5.34
2018-02-24T11:26:11.147Z,4.97
2018-02-24T11:27:11.170Z,5.34
2018-02-24T11:28:11.199Z,6.20
2018-02-24T11:29:11.218Z,7.29
2018-02-24T11:30:11.238Z,6.76
2018-02-24T11:31:11.267Z,8.06
2018-02-24T11:32:11.283Z,8.80
2018-02-24T11:33:11.309Z,8.65
2018-02-24T11:34:11.333Z,8.49
2018-02-24T11:35:11.362Z,9.35
2018-02-24T11:36:11.373Z,9.66
2018-02-24T11:37:11.395Z,8.58
2018-02-24T11:38:11.423Z,9.42
2018-02-24T11:39:11.446Z,8.95
2018-02-24T11:40:11.464Z,9.60
2018-02-24T11:41:11.492Z,9.93
2018-02-24T11:42:11.510Z,10.23
2018-02-24T11:43:11.538Z,10.33
2018-02-24T11:44:11.557Z,11.27
2018-02-24T11:45:11.586Z,10.95
2018-02-24T11:46:11.604Z,11.28
2018-02-24T11:47:11.633Z,10.39
2018-02-24T11:48:11.650Z,10.33
2018-02-24T11:49:11.680Z,10.63
2018-02-24T11:50:11.721Z,11.35
2018-02-24T11:51:11.728Z,11.91
2018-02-24T11:52:11.747Z,12.00
2018-02-24T11:53:11.777Z,9.57
2018-02-24T11:54:11.797Z,8.74
2018-02-24T11:55:11.821Z,8.76
2018-02-24T11:56:11.855Z,7.73
2018-02-24T11:57:11.870Z,7.71
2018-02-24T11:58:11.901Z,9.39
2018-02-24T11:59:11.921Z,9.92
2018-02-24T12:00:11.951Z,10.15
2018-02-24T12:01:11.969Z,10.00
2018-02-24T12:02:11.999Z,10.80
2018-02-24T12:03:12.027Z,11.20
2018-02-24T12:04:12.049Z,11.16
2018-02-24T12:05:12.067Z,10.42
2018-02-24T12:06:12.100Z,10.26
2018-02-24T12:07:12.117Z,10.52
2018-02-24T12:08:12.149Z,10.55
2018-02-24T12:09:12.170Z,10.79
2018-02-24T12:10:12.199Z,11.45
2018-02-24T12:11:12.224Z,10.29
2018-02-24T12:12:12.243Z,9.44
2018-02-24T12:13:12.269Z,8.24
2018-02-24T12:14:12.298Z,7.96
2018-02-24T12:15:12.324Z,6.98
2018-02-24T12:16:12.344Z,6.52
2018-02-24T12:17:12.370Z,6.75
2018-02-24T12:18:12.401Z,5.95
2018-02-24T12:19:12.423Z,5.54
2018-02-24T12:20:12.445Z,5.54
2018-02-24T12:21:12.465Z,5.52
2018-02-24T12:22:12.496Z,5.51
2018-02-24T12:23:12.518Z,5.55
2018-02-24T12:24:12.537Z,5.18
2018-02-24T12:25:12.559Z,4.94
2018-02-24T12:26:12.605Z,4.74
2018-02-24T12:27:12.606Z,4.74
2018-02-24T12:28:12.639Z,4.88
2018-02-24T12:29:12.655Z,4.97
2018-02-24T12:30:12.677Z,5.24
2018-02-24T12:31:12.695Z,5.33
2018-02-24T12:32:12.723Z,5.42
2018-02-24T12:33:12.748Z,5.24
2018-02-24T12:34:12.761Z,5.24
2018-02-24T12:35:12.786Z,4.94
2018-02-24T12:36:12.803Z,4.97
2018-02-24T12:37:12.829Z,4.87
2018-02-24T12:38:12.845Z,4.72
2018-02-24T12:39:12.874Z,4.88
2018-02-24T12:40:12.886Z,5.41
2018-02-24T12:41:12.912Z,5.00
2018-02-24T12:42:12.928Z,5.12
2018-02-24T12:43:12.953Z,7.22
2018-02-24T12:44:12.968Z,6.58
2018-02-24T12:45:12.994Z,5.95
2018-02-24T12:46:13.009Z,5.81
2018-02-24T12:47:13.035Z,5.45
2018-02-24T12:48:13.051Z,5.95
2018-02-24T12:49:13.075Z,6.90
2018-02-24T12:50:13.091Z,8.06
2018-02-24T12:51:13.111Z,8.04
2018-02-24T12:52:13.136Z,6.75
2018-02-24T12:53:13.150Z,5.98
2018-02-24T12:54:13.176Z,5.39
2018-02-24T12:55:13.192Z,4.94
2018-02-24T12:56:13.217Z,6.07
2018-02-24T12:57:13.232Z,7.13
2018-02-24T12:58:13.258Z,6.78
2018-02-24T12:59:13.272Z,6.13
2018-02-24T13:00:13.299Z,5.52